createdAt,value
2018-12-12T00:01:55.951Z,3.40
2018-12-12T00:04:27.055Z,3.30
2018-12-12T00:06:58.523Z,3.40
2018-12-12T00:09:30.152Z,3.20
2018-12-12T00:12:01.383Z,3.20
2018-12-12T00:14:32.559Z,3.20
2018-12-12T00:17:03.747Z,3.20
2018-12-12T00:19:34.565Z,3.20
2018-12-12T00:22:08.199Z,3.10
2018-12-12T00:24:37.727Z,3.10
2018-12-12T00:27:08.523Z,3.00
2018-12-12T00:29:42.279Z,3.00
2018-12-12T00:32:13.674Z,3.00
2018-12-12T00:34:47.441Z,3.00
2018-12-12T00:37:18.757Z,3.00
2018-12-12T00:39:47.965Z,3.00
2018-12-12T00:42:18.765Z,2.90
2018-12-12T00:44:49.938Z,2.90
2018-12-12T00:47:20.986Z,2.90
2018-12-12T00:49:54.755Z,2.90
2018-12-12T00:52:26.099Z,2.90
2018-12-12T00:54:57.223Z,2.90
2018-12-12T00:57:28.594Z,2.80
2018-12-12T00:59:59.549Z,2.90
2018-12-12T01:02:30.295Z,3.00
2018-12-12T01:05:01.177Z,3.00
2018-12-12T01:07:32.603Z,3.10
2018-12-12T01:13:08.424Z,3.10
2018-12-12T01:15:39.379Z,3.10
2018-12-12T01:18:10.650Z,3.10
2018-12-12T01:20:44.463Z,3.10
2018-12-12T01:23:18.629Z,3.10
2018-12-12T01:25:50.252Z,3.10
2018-12-12T01:28:23.840Z,3.10
2018-12-12T01:30:57.695Z,3.10
2018-12-12T01:33:29.083Z,3.00
2018-12-12T01:36:00.060Z,3.10
2018-12-12T01:38:31.164Z,3.00
2018-12-12T01:41:02.167Z,3.00
2018-12-12T01:43:33.141Z,2.90
2018-12-12T01:46:08.631Z,2.90
2018-12-12T01:48:42.780Z,3.00
2018-12-12T01:51:13.948Z,3.00
2018-12-12T01:53:46.927Z,3.00
2018-12-12T01:56:18.071Z,3.10
2018-12-12T01:58:49.788Z,3.10
2018-12-12T02:01:21.007Z,3.00
2018-12-12T02:03:52.099Z,3.00
2018-12-12T02:06:23.251Z,3.00
2018-12-12T02:08:54.271Z,3.00
2018-12-12T02:11:27.679Z,3.00
2018-12-12T02:13:58.999Z,3.00
2018-12-12T02:16:30.215Z,3.00
2018-12-12T02:19:01.211Z,2.90
2018-12-12T02:24:35.922Z,3.00
2018-12-12T02:27:09.359Z,2.90
2018-12-12T02:29:43.108Z,2.90
2018-12-12T02:32:14.535Z,3.00
2018-12-12T02:34:45.898Z,2.90
2018-12-12T02:37:16.857Z,2.90
2018-12-12T02:39:50.498Z,3.00
2018-12-12T02:42:22.056Z,3.00
2018-12-12T02:44:55.546Z,2.90
2018-12-12T02:47:24.976Z,2.90
2018-12-12T02:50:00.491Z,3.10
2018-12-12T02:52:31.791Z,3.10
2018-12-12T02:55:03.112Z,3.10
2018-12-12T02:57:32.807Z,3.00
2018-12-12T03:00:04.894Z,3.00
2018-12-12T03:02:37.064Z,3.00
2018-12-12T03:05:10.928Z,3.10
2018-12-12T03:07:42.087Z,3.10
2018-12-12T03:10:13.184Z,3.00
2018-12-12T03:12:44.938Z,3.00
2018-12-12T03:15:15.737Z,3.00
2018-12-12T03:17:46.786Z,3.00
2018-12-12T03:20:17.810Z,3.00
2018-12-12T03:22:48.899Z,3.10
2018-12-12T03:25:22.457Z,3.10
2018-12-12T03:27:53.825Z,3.00
2018-12-12T03:30:24.732Z,3.00
2018-12-12T03:32:55.815Z,3.00
2018-12-12T03:35:26.719Z,3.00
2018-12-12T03:37:57.759Z,3.00
2018-12-12T03:40:29.517Z,3.00
2018-12-12T03:43:01.300Z,3.00
2018-12-12T03:45:32.969Z,3.10
2018-12-12T03:48:03.964Z,3.20
2018-12-12T03:50:38.117Z,3.20
2018-12-12T03:53:14.103Z,3.20
2018-12-12T03:55:45.677Z,3.20
2018-12-12T03:58:16.579Z,3.10
2018-12-12T04:00:47.673Z,3.20
2018-12-12T04:03:18.748Z,3.20
2018-12-12T04:05:50.549Z,3.20
2018-12-12T04:08:21.638Z,3.20
2018-12-12T04:13:56.923Z,3.10
2018-12-12T04:16:28.303Z,3.10
2018-12-12T04:19:00.100Z,3.10
2018-12-12T04:21:31.171Z,3.10
2018-12-12T04:24:02.933Z,3.10
2018-12-12T04:26:33.957Z,3.10
2018-12-12T04:29:04.841Z,3.10
2018-12-12T04:31:38.224Z,3.00
2018-12-12T04:34:09.625Z,3.00
2018-12-12T04:36:40.855Z,3.10
2018-12-12T04:39:11.731Z,3.00
2018-12-12T04:41:42.796Z,3.00
2018-12-12T04:44:13.808Z,3.10
2018-12-12T04:46:47.348Z,3.10
2018-12-12T04:49:18.763Z,3.00
2018-12-12T04:51:52.271Z,3.00
2018-12-12T04:54:26.159Z,3.10
2018-12-12T04:56:57.759Z,3.10
2018-12-12T04:59:31.616Z,3.10
2018-12-12T05:02:06.083Z,3.10
2018-12-12T05:04:37.736Z,3.10
2018-12-12T05:07:08.807Z,3.00
2018-12-12T05:09:40.091Z,3.00
2018-12-12T05:12:11.169Z,3.00
2018-12-12T05:14:40.063Z,3.00
2018-12-12T05:17:13.944Z,2.90
2018-12-12T05:19:45.395Z,2.90
2018-12-12T05:22:16.559Z,3.00
2018-12-12T05:24:47.737Z,3.00
2018-12-12T05:27:17.359Z,2.90
2018-12-12T05:29:51.111Z,2.90
2018-12-12T05:32:22.435Z,2.90
2018-12-12T05:34:53.255Z,2.80
2018-12-12T05:37:24.320Z,2.80
2018-12-12T05:39:55.475Z,2.90
2018-12-12T05:42:26.290Z,2.80
2018-12-12T05:44:57.326Z,2.90
2018-12-12T05:47:26.483Z,3.00
2018-12-12T05:49:57.716Z,3.00
2018-12-12T05:52:31.430Z,2.90
2018-12-12T05:55:03.475Z,3.00
2018-12-12T05:57:34.531Z,3.00
2018-12-12T06:00:08.143Z,3.10
2018-12-12T06:02:39.149Z,3.10
2018-12-12T06:05:13.015Z,3.00
2018-12-12T06:07:44.275Z,3.00
2018-12-12T06:10:15.184Z,2.90
2018-12-12T06:12:48.845Z,3.00
2018-12-12T06:18:24.047Z,3.00
2018-12-12T06:20:55.239Z,2.90
2018-12-12T06:23:26.163Z,2.90
2018-12-12T06:25:57.375Z,2.90
2018-12-12T06:28:28.956Z,3.00
2018-12-12T06:31:00.091Z,2.90
2018-12-12T06:33:31.367Z,2.90
2018-12-12T06:36:02.363Z,2.90
2018-12-12T06:38:33.326Z,3.00
2018-12-12T06:41:06.394Z,2.90
2018-12-12T06:43:37.628Z,2.90
2018-12-12T06:46:08.700Z,2.90
2018-12-12T06:48:39.735Z,2.90
2018-12-12T06:51:10.906Z,2.80
2018-12-12T06:53:41.723Z,2.80
2018-12-12T06:56:12.911Z,2.80
2018-12-12T06:58:43.710Z,2.80
2018-12-12T07:01:14.821Z,2.80
2018-12-12T07:03:48.324Z,2.90
2018-12-12T07:06:19.791Z,2.80
2018-12-12T07:08:52.010Z,2.90
2018-12-12T07:11:25.521Z,2.90
2018-12-12T07:13:57.192Z,2.80
2018-12-12T07:16:30.691Z,2.80
2018-12-12T07:19:01.758Z,2.80
2018-12-12T07:21:33.008Z,2.80
2018-12-12T07:24:04.035Z,2.70
2018-12-12T07:26:37.563Z,2.70
2018-12-12T07:29:09.267Z,2.70
2018-12-12T07:31:40.041Z,2.70
2018-12-12T07:34:11.010Z,2.70
2018-12-12T07:36:41.904Z,2.60
2018-12-12T07:39:17.879Z,2.60
2018-12-12T07:41:46.460Z,2.50
2018-12-12T07:44:18.222Z,2.40
2018-12-12T07:46:49.363Z,2.40
2018-12-12T07:49:19.039Z,2.30
2018-12-12T07:51:49.981Z,2.20
2018-12-12T07:54:20.894Z,2.10
2018-12-12T07:56:51.769Z,2.10
2018-12-12T07:59:22.803Z,2.00
2018-12-12T08:01:54.071Z,1.80
2018-12-12T08:04:31.399Z,1.70
2018-12-12T08:07:05.663Z,1.70
2018-12-12T08:09:37.215Z,1.70
2018-12-12T08:12:08.249Z,1.60
2018-12-12T08:14:39.977Z,1.60
2018-12-12T08:17:10.948Z,1.70
2018-12-12T08:19:42.031Z,1.70
2018-12-12T08:22:13.349Z,1.80
2018-12-12T08:24:45.143Z,1.80
2018-12-12T08:27:16.134Z,1.80
2018-12-12T08:29:47.066Z,1.90
2018-12-12T08:32:18.376Z,2.00
2018-12-12T08:34:49.291Z,2.20
2018-12-12T08:37:20.374Z,2.30
2018-12-12T08:39:51.276Z,2.50
2018-12-12T08:42:22.435Z,2.40
2018-12-12T08:44:53.527Z,2.40
2018-12-12T08:47:27.118Z,2.50
2018-12-12T08:49:56.539Z,2.70
2018-12-12T08:52:29.995Z,2.80
2018-12-12T08:55:01.157Z,2.90
2018-12-12T08:57:35.815Z,2.90
2018-12-12T09:00:09.855Z,2.90
2018-12-12T09:02:43.488Z,2.90
2018-12-12T09:05:17.351Z,3.00
2018-12-12T09:07:51.427Z,3.20
2018-12-12T09:10:22.295Z,3.30
2018-12-12T09:12:55.815Z,3.20
2018-12-12T09:15:29.528Z,3.00
2018-12-12T09:18:00.759Z,3.00
2018-12-12T09:20:31.743Z,3.00
2018-12-12T09:23:02.739Z,2.90
2018-12-12T09:25:36.413Z,2.90
2018-12-12T09:28:12.227Z,3.00
2018-12-12T09:30:45.527Z,2.90
2018-12-12T09:33:17.175Z,3.00
2018-12-12T09:35:48.299Z,2.90
2018-12-12T09:38:21.751Z,2.90
2018-12-12T09:40:55.547Z,2.90
2018-12-12T09:43:26.592Z,3.00
2018-12-12T09:45:57.486Z,3.00
2018-12-12T09:48:31.112Z,3.10
2018-12-12T09:51:07.072Z,3.30
2018-12-12T09:53:35.676Z,3.40
2018-12-12T09:56:06.605Z,3.60
2018-12-12T09:58:38.265Z,3.70
2018-12-12T10:01:09.823Z,3.90
2018-12-12T10:03:41.704Z,4.00
2018-12-12T10:06:13.227Z,4.10
2018-12-12T10:08:44.117Z,4.20
2018-12-12T10:11:20.348Z,4.20
2018-12-12T10:13:51.855Z,4.40
2018-12-12T10:16:23.112Z,4.60
2018-12-12T10:18:54.540Z,4.60
2018-12-12T10:21:26.068Z,4.70
2018-12-12T10:23:57.268Z,4.80
2018-12-12T10:26:28.351Z,4.80
2018-12-12T10:28:59.707Z,5.00
2018-12-12T10:31:30.601Z,5.00
2018-12-12T10:34:01.805Z,5.10
2018-12-12T10:36:32.676Z,5.10
2018-12-12T10:39:07.771Z,5.20
2018-12-12T10:41:39.438Z,5.20
2018-12-12T10:44:10.347Z,5.20
2018-12-12T10:46:41.575Z,5.20
2018-12-12T10:49:12.397Z,5.30
2018-12-12T10:51:43.691Z,5.40
2018-12-12T10:54:14.812Z,5.40
2018-12-12T10:56:46.004Z,5.40
2018-12-12T10:59:17.883Z,5.50
2018-12-12T11:01:50.798Z,5.50
2018-12-12T11:04:21.901Z,5.50
2018-12-12T11:06:55.524Z,5.50
2018-12-12T11:09:26.903Z,5.60
2018-12-12T11:11:58.115Z,5.80
2018-12-12T11:14:29.246Z,5.80
2018-12-12T11:17:00.991Z,5.60
2018-12-12T11:19:32.003Z,5.60
2018-12-12T11:22:03.027Z,5.40
2018-12-12T11:24:34.026Z,5.50
2018-12-12T11:27:05.054Z,5.50
2018-12-12T11:29:36.149Z,5.60
2018-12-12T11:32:07.408Z,5.60
2018-12-12T11:34:39.259Z,5.60
2018-12-12T11:37:10.362Z,5.70
2018-12-12T11:39:41.044Z,5.70
2018-12-12T11:42:13.497Z,5.90
2018-12-12T11:44:44.340Z,6.10
2018-12-12T11:47:15.982Z,6.10
2018-12-12T11:49:45.242Z,6.00
2018-12-12T11:52:16.209Z,6.20
2018-12-12T11:54:47.410Z,6.30
2018-12-12T11:57:18.743Z,6.40
2018-12-12T11:59:50.200Z,6.30
2018-12-12T12:02:21.331Z,6.20
2018-12-12T12:04:54.763Z,6.30
2018-12-12T12:07:26.271Z,6.10
2018-12-12T12:09:58.071Z,5.90
2018-12-12T12:15:04.829Z,5.50
2018-12-12T12:17:39.280Z,5.40
2018-12-12T12:20:10.500Z,5.50
2018-12-12T12:22:41.495Z,5.30
2018-12-12T12:25:12.523Z,5.30
2018-12-12T12:27:46.239Z,5.30
2018-12-12T12:30:17.386Z,5.20
2018-12-12T12:32:48.419Z,5.30
2018-12-12T12:35:21.681Z,5.10
2018-12-12T12:37:53.027Z,5.00
2018-12-12T12:40:24.151Z,5.10
2018-12-12T12:42:57.868Z,5.10
2018-12-12T12:45:29.420Z,5.20
2018-12-12T12:47:59.099Z,5.20
2018-12-12T12:50:29.970Z,5.10
2018-12-12T12:53:01.259Z,5.20
2018-12-12T12:55:32.931Z,5.20
2018-12-12T12:58:03.998Z,5.20
2018-12-12T13:00:35.041Z,5.20
2018-12-12T13:03:08.697Z,5.20
2018-12-12T13:05:40.043Z,5.20
2018-12-12T13:08:11.148Z,5.30
2018-12-12T13:10:42.397Z,5.30
2018-12-12T13:15:45.127Z,5.20
2018-12-12T13:18:16.063Z,5.20
2018-12-12T13:20:49.130Z,5.30
2018-12-12T13:23:20.697Z,5.40
2018-12-12T13:25:51.529Z,5.50
2018-12-12T13:28:23.412Z,5.50
2018-12-12T13:30:56.707Z,5.40
2018-12-12T13:33:28.000Z,5.50
2018-12-12T13:35:58.776Z,5.50
2018-12-12T13:38:29.868Z,5.50
2018-12-12T13:41:00.772Z,5.40
2018-12-12T13:43:31.599Z,5.40
2018-12-12T13:46:02.762Z,5.40
2018-12-12T13:48:33.682Z,5.40
2018-12-12T13:51:04.375Z,5.50
2018-12-12T13:53:35.424Z,5.50
2018-12-12T13:56:06.676Z,5.30
2018-12-12T13:58:37.713Z,5.20
2018-12-12T14:01:11.178Z,5.20
2018-12-12T14:03:42.571Z,5.20
2018-12-12T14:06:13.631Z,5.30
2018-12-12T14:08:47.059Z,5.40
2018-12-12T14:11:18.441Z,5.50
2018-12-12T14:13:52.009Z,5.40
2018-12-12T14:16:23.623Z,5.50
2018-12-12T14:18:54.570Z,5.40
2018-12-12T14:21:25.517Z,5.40
2018-12-12T14:23:59.067Z,5.40
2018-12-12T14:26:30.476Z,5.40
2018-12-12T14:29:01.419Z,5.40
2018-12-12T14:31:32.711Z,5.30
2018-12-12T14:34:04.477Z,5.30
2018-12-12T14:36:35.327Z,5.20
2018-12-12T14:39:07.272Z,5.20
2018-12-12T14:41:37.995Z,5.30
2018-12-12T14:44:08.751Z,5.20
2018-12-12T14:46:39.577Z,5.20
2018-12-12T14:49:13.120Z,5.10
2018-12-12T14:51:44.396Z,5.00
2018-12-12T14:54:15.375Z,5.00
2018-12-12T14:56:48.973Z,4.90
2018-12-12T14:59:20.300Z,5.00
2018-12-12T15:01:53.973Z,4.90
2018-12-12T15:04:25.341Z,4.90
2018-12-12T15:06:56.299Z,4.90
2018-12-12T15:09:27.313Z,4.90
2018-12-12T15:11:58.955Z,4.80
2018-12-12T15:14:29.999Z,4.80
2018-12-12T15:17:01.581Z,4.70
2018-12-12T15:19:32.754Z,4.70
2018-12-12T15:22:04.257Z,4.70
2018-12-12T15:24:35.561Z,4.50
2018-12-12T15:27:08.649Z,4.60
2018-12-12T15:29:40.231Z,4.60
2018-12-12T15:32:11.147Z,4.50
2018-12-12T15:34:42.449Z,4.40
2018-12-12T15:37:14.167Z,4.40
2018-12-12T15:39:47.992Z,4.40
2018-12-12T15:42:19.373Z,4.40
2018-12-12T15:44:50.323Z,4.40
2018-12-12T15:47:21.719Z,4.30
2018-12-12T15:49:52.964Z,4.30
2018-12-12T15:52:24.555Z,4.30
2018-12-12T15:54:55.907Z,4.20
2018-12-12T15:57:27.046Z,4.20
2018-12-12T15:59:57.931Z,4.20
2018-12-12T16:02:28.831Z,4.30
2018-12-12T16:05:00.183Z,4.20
2018-12-12T16:07:29.891Z,4.20
2018-12-12T16:10:00.799Z,4.20
2018-12-12T16:12:32.282Z,4.20
2018-12-12T16:15:06.380Z,4.20
2018-12-12T16:17:37.790Z,4.20
2018-12-12T16:20:09.385Z,4.10
2018-12-12T16:22:41.003Z,4.10
2018-12-12T16:25:10.923Z,4.00
2018-12-12T16:27:42.770Z,4.00
2018-12-12T16:30:16.339Z,4.00
2018-12-12T16:32:47.635Z,3.90
2018-12-12T16:35:18.572Z,3.90
2018-12-12T16:37:49.440Z,4.00
2018-12-12T16:40:20.461Z,3.90
2018-12-12T16:42:51.511Z,3.90
2018-12-12T16:45:22.647Z,3.90
2018-12-12T16:47:53.559Z,4.00
2018-12-12T16:50:24.765Z,3.90
2018-12-12T16:52:55.731Z,3.80
2018-12-12T16:55:26.911Z,3.80
2018-12-12T16:57:57.860Z,3.70
2018-12-12T17:00:28.755Z,3.70
2018-12-12T17:02:59.972Z,3.70
2018-12-12T17:05:31.085Z,3.70
2018-12-12T17:08:02.779Z,3.70
2018-12-12T17:10:34.506Z,3.70
2018-12-12T17:13:06.207Z,3.70
2018-12-12T17:15:37.582Z,3.70
2018-12-12T17:18:09.503Z,3.70
2018-12-12T17:20:41.438Z,3.70
2018-12-12T17:23:15.854Z,3.70
2018-12-12T17:25:47.227Z,3.60
2018-12-12T17:28:20.759Z,3.60
2018-12-12T17:30:52.193Z,3.50
2018-12-12T17:33:23.327Z,3.40
2018-12-12T17:35:56.871Z,3.40
2018-12-12T17:38:28.324Z,3.40
2018-12-12T17:40:59.265Z,3.40
2018-12-12T17:43:30.113Z,3.50
2018-12-12T17:46:01.327Z,3.50
2018-12-12T17:48:32.294Z,3.50
2018-12-12T17:51:03.344Z,3.60
2018-12-12T17:53:34.191Z,3.50
2018-12-12T17:56:05.594Z,3.50
2018-12-12T17:58:38.891Z,3.50
2018-12-12T18:01:10.507Z,3.50
2018-12-12T18:03:41.262Z,3.40
2018-12-12T18:06:12.156Z,3.30
2018-12-12T18:08:43.115Z,3.20
2018-12-12T18:11:14.061Z,3.10
2018-12-12T18:13:45.219Z,3.00
2018-12-12T18:16:18.890Z,3.00
2018-12-12T18:23:56.518Z,2.70
2018-12-12T18:26:30.120Z,2.60
2018-12-12T18:29:01.455Z,2.60
2018-12-12T18:31:32.426Z,2.60
2018-12-12T18:34:04.154Z,2.50
2018-12-12T18:36:35.848Z,2.50
2018-12-12T18:39:07.382Z,2.50
2018-12-12T18:41:41.003Z,2.70
2018-12-12T18:44:12.231Z,2.70
2018-12-12T18:46:41.500Z,2.70
2018-12-12T18:49:12.473Z,2.70
2018-12-12T18:51:43.526Z,2.80
2018-12-12T18:54:14.429Z,2.80
2018-12-12T18:56:45.718Z,2.90
2018-12-12T18:59:17.213Z,2.90
2018-12-12T19:01:48.290Z,2.90
2018-12-12T19:04:19.178Z,2.90
2018-12-12T19:06:50.435Z,2.90
2018-12-12T19:09:21.203Z,2.90
2018-12-12T19:11:52.100Z,3.00
2018-12-12T19:14:23.258Z,3.00
2018-12-12T19:16:54.590Z,3.00
2018-12-12T19:19:28.038Z,2.90
2018-12-12T19:21:59.351Z,3.00
2018-12-12T19:24:30.515Z,3.00
2018-12-12T19:27:01.567Z,3.00
2018-12-12T19:29:32.735Z,3.00
2018-12-12T19:32:03.994Z,3.00
2018-12-12T19:34:35.650Z,3.00
2018-12-12T19:37:06.857Z,3.00
2018-12-12T19:39:38.599Z,3.00
2018-12-12T19:42:10.582Z,3.00
2018-12-12T19:44:42.541Z,3.00
2018-12-12T19:47:14.044Z,3.00
2018-12-12T19:49:44.979Z,3.00
2018-12-12T19:52:16.493Z,3.00
2018-12-12T19:54:50.121Z,3.00
2018-12-12T19:57:21.583Z,3.00
2018-12-12T19:59:53.295Z,3.00
2018-12-12T20:02:24.358Z,3.00
2018-12-12T20:04:55.466Z,3.00
2018-12-12T20:07:26.827Z,3.00
2018-12-12T20:09:58.575Z,3.00
2018-12-12T20:12:32.262Z,3.00
2018-12-12T20:15:05.455Z,3.00
2018-12-12T20:17:37.056Z,3.00
2018-12-12T20:20:08.328Z,3.00
2018-12-12T20:25:11.755Z,3.00
2018-12-12T20:27:42.747Z,3.00
2018-12-12T20:30:13.847Z,3.00
2018-12-12T20:32:45.642Z,3.00
2018-12-12T20:35:16.623Z,3.00
2018-12-12T20:37:50.766Z,3.00
2018-12-12T20:40:22.388Z,3.00
2018-12-12T20:42:59.420Z,2.90
2018-12-12T20:45:30.318Z,3.00
2018-12-12T20:48:01.407Z,3.00
2018-12-12T20:50:32.447Z,3.00
2018-12-12T20:53:03.671Z,3.00
2018-12-12T20:55:34.728Z,2.90
2018-12-12T20:58:06.075Z,3.00
2018-12-12T21:00:37.087Z,2.90
2018-12-12T21:03:08.167Z,2.90
2018-12-12T21:05:38.975Z,3.00
2018-12-12T21:08:09.755Z,3.00
2018-12-12T21:10:43.522Z,2.90
2018-12-12T21:13:14.996Z,2.90
2018-12-12T21:15:47.314Z,3.00
2018-12-12T21:18:19.096Z,2.90
2018-12-12T21:20:50.167Z,2.90
2018-12-12T21:23:21.017Z,2.90
2018-12-12T21:33:27.027Z,2.90
2018-12-12T21:36:00.877Z,2.90
2018-12-12T21:38:31.145Z,2.90
2018-12-12T21:41:04.382Z,2.90
2018-12-12T21:43:35.232Z,2.90
2018-12-12T21:46:06.111Z,2.90
2018-12-12T21:48:37.727Z,2.90
2018-12-12T21:51:09.203Z,2.90
2018-12-12T21:53:40.090Z,2.90
2018-12-12T21:56:11.229Z,2.90
2018-12-12T21:58:42.971Z,2.90
2018-12-12T22:01:14.245Z,2.90
2018-12-12T22:03:45.284Z,2.90
2018-12-12T22:06:16.733Z,2.90
2018-12-12T22:08:47.988Z,2.90
2018-12-12T22:11:19.096Z,2.80
2018-12-12T22:13:49.949Z,2.80
2018-12-12T22:16:21.055Z,2.80
2018-12-12T22:18:52.035Z,2.80
2018-12-12T22:21:22.931Z,2.80
2018-12-12T22:23:53.976Z,2.70
2018-12-12T22:26:25.310Z,2.70
2018-12-12T22:28:57.107Z,2.70
2018-12-12T22:31:28.989Z,2.70
2018-12-12T22:34:02.499Z,2.70
2018-12-12T22:36:33.607Z,2.70
2018-12-12T22:39:07.186Z,2.70
2018-12-12T22:41:38.626Z,2.70
2018-12-12T22:44:09.382Z,2.60
2018-12-12T22:46:40.530Z,2.60
2018-12-12T22:49:11.231Z,2.60
2018-12-12T22:51:42.100Z,2.60
2018-12-12T22:54:12.855Z,2.60
2018-12-12T22:56:44.023Z,2.50
2018-12-12T22:59:15.061Z,2.50
2018-12-12T23:01:46.771Z,2.40
2018-12-12T23:04:17.695Z,2.40
2018-12-12T23:06:48.599Z,2.40
2018-12-12T23:09:19.437Z,2.30
2018-12-12T23:11:50.375Z,2.20
2018-12-12T23:14:21.615Z,2.10
2018-12-12T23:16:53.072Z,2.00
2018-12-12T23:19:24.921Z,1.90
2018-12-12T23:21:56.656Z,1.70
2018-12-12T23:24:30.252Z,1.70
2018-12-12T23:27:01.944Z,1.50
2018-12-12T23:29:32.635Z,1.40
2018-12-12T23:42:03.825Z,1.20
2018-12-12T23:44:34.871Z,1.00
2018-12-12T23:47:06.744Z,1.00
2018-12-12T23:49:37.683Z,0.90
2018-12-12T23:52:08.700Z,0.90
2018-12-12T23:54:39.803Z,0.90
2018-12-12T23:57:10.511Z,0.90
2018-12-12T23:59:41.375Z,0.70
